Kalamita — EMSV — position and weather

sailwx.info

Track history (hours):
 
Tides and Currents Weather Stations Pressure Air Temp Water Temp Dewpoint Dewpoint Depression Visibility Wind Speed Wind Dir Waves Ship Positions

Kalamita

Last reported at 2016-Nov-23 20:26 UTC. Time now 2016-Dec-11 04:17 UTC.
Position N 44°35' E 037°37'.
Warning: this ship's position is 17 days out of date.

Length 55 m; draft 4 m.

Type: Fishing. MMSI: 272440000.

Date/timePositionNaut miles runAvg speedWind from/ knotsBaromVisibWave heightAir tempDewpointWater temp
2016-Nov-23 20:26N 44°35' E 037°37'9 9.9
2016-Nov-23 19:33N 44°31' E 037°48'5410.3
2016-Nov-23 14:15N 44°07' E 038°56'2 3.3
2016-Nov-23 13:33N 44°06' E 038°59'0 0.2
2016-Nov-23 12:34N 44°06' E 038°59'0 0.2
2016-Nov-23 11:33N 44°05' E 038°58'3 2.6
2016-Nov-23 10:33N 44°03' E 039°00'2 2.5
2016-Nov-23 09:33N 44°05' E 038°58'4 4.4
2016-Nov-23 08:33N 44°08' E 038°54'4 4.1
2016-Nov-23 07:33N 44°06' E 038°58'3 2.9
2016-Nov-23 06:33N 44°08' E 038°55'3 1.0
2016-Nov-23 03:32N 44°10' E 038°52'1 0.4
2016-Nov-23 02:17N 44°09' E 038°52'3 0.2
2016-Nov-22 10:33N 44°12' E 038°50'3 0.5
2016-Nov-22 04:13N 44°10' E 038°53'1 0.8
2016-Nov-22 03:33N 44°11' E 038°53'0 0.0
2016-Nov-22 02:33N 44°11' E 038°53'0 0.0
2016-Nov-21 23:33N 44°11' E 038°53'15 7.6
2016-Nov-21 21:33N 43°59' E 039°08'6 1.3
2016-Nov-21 17:08N 43°57' E 039°14'18 6.9
2016-Nov-21 14:29N 44°08' E 038°55'3 3.1
2016-Nov-21 13:33N 44°10' E 038°52'2 1.1
2016-Nov-21 11:33N 44°09' E 038°54'2 2.4
2016-Nov-21 10:33N 44°10' E 038°52'1 0.4
2016-Nov-21 07:31N 44°11' E 038°50'36 2.0
2016-Nov-20 13:32N 44°27' E 038°05'3 2.9
2016-Nov-20 12:31N 44°29' E 038°02'2 0.5
2016-Nov-20 09:33N 44°28' E 038°03'4 1.1
2016-Nov-20 06:05N 44°26' E 038°07'2 3.2
2016-Nov-20 05:33N 44°27' E 038°05'2 1.6
2016-Nov-20 04:33N 44°28' E 038°05'4 3.5
2016-Nov-20 03:30N 44°32' E 038°03'0 0.0
2016-Nov-20 01:33N 44°32' E 038°03'0 0.0
2016-Nov-19 23:12N 44°32' E 038°03'0 0.0
2016-Nov-19 22:30N 44°32' E 038°03'4 1.6
2016-Nov-19 20:10N 44°32' E 037°57'0 0.2
2016-Nov-19 19:31N 44°32' E 037°58'1 0.3
2016-Nov-19 17:29N 44°33' E 037°57'3 2.8
2016-Nov-19 16:33N 44°33' E 038°01'3 1.4
2016-Nov-19 14:16N 44°32' E 037°56'1 0.2
2016-Nov-19 09:33N 44°33' E 037°55'3 1.6
2016-Nov-19 07:33N 44°31' E 037°59'2 1.1
2016-Nov-19 05:33N 44°32' E 037°57'3 2.8
2016-Nov-19 04:33N 44°32' E 038°00'1 0.4
2016-Nov-19 01:18N 44°33' E 038°01'2 3.3
2016-Nov-19 00:33N 44°34' E 037°58'3 2.9
2016-Nov-18 23:31N 44°31' E 037°56'1 0.4
2016-Nov-18 20:31N 44°31' E 037°58'2 1.1
2016-Nov-18 18:29N 44°33' E 037°59'17 1.5
2016-Nov-18 07:13N 44°22' E 038°19'1 0.3
2016-Nov-18 04:22N 44°22' E 038°18'12 3.7
2016-Nov-18 01:07N 44°30' E 038°05'0 0.0
2016-Nov-17 23:31N 44°30' E 038°05'0 0.1
2016-Nov-17 21:10N 44°30' E 038°04'3 0.4
2016-Nov-17 14:22N 44°28' E 038°07'2 1.7
2016-Nov-17 13:16N 44°27' E 038°05'3 0.6
2016-Nov-17 08:24N 44°29' E 038°01'15 8.3
2016-Nov-17 06:33N 44°36' E 037°41'  
Track history (hours):
 
Tides and Currents Weather Stations Pressure Air Temp Water Temp Dewpoint Dewpoint Depression Visibility Wind Speed Wind Dir Waves Ship Positions

Kalamita

Last reported at 2016-Nov-23 20:26 UTC. Time now 2016-Dec-11 04:17 UTC.
Position N 44°35' E 037°37'.
Warning: this ship's position is 17 days out of date.

Length 55 m; draft 4 m.

Type: Fishing. MMSI: 272440000.

Date/timePositionNaut miles runAvg speedWind from/ knotsBaromVisibWave heightAir tempDewpointWater temp
2016-Nov-23 20:26N 44°35' E 037°37'9 9.9
2016-Nov-23 19:33N 44°31' E 037°48'5410.3
2016-Nov-23 14:15N 44°07' E 038°56'2 3.3
2016-Nov-23 13:33N 44°06' E 038°59'0 0.2
2016-Nov-23 12:34N 44°06' E 038°59'0 0.2
2016-Nov-23 11:33N 44°05' E 038°58'3 2.6
2016-Nov-23 10:33N 44°03' E 039°00'2 2.5
2016-Nov-23 09:33N 44°05' E 038°58'4 4.4
2016-Nov-23 08:33N 44°08' E 038°54'4 4.1
2016-Nov-23 07:33N 44°06' E 038°58'3 2.9
2016-Nov-23 06:33N 44°08' E 038°55'3 1.0
2016-Nov-23 03:32N 44°10' E 038°52'1 0.4
2016-Nov-23 02:17N 44°09' E 038°52'3 0.2
2016-Nov-22 10:33N 44°12' E 038°50'3 0.5
2016-Nov-22 04:13N 44°10' E 038°53'1 0.8
2016-Nov-22 03:33N 44°11' E 038°53'0 0.0
2016-Nov-22 02:33N 44°11' E 038°53'0 0.0
2016-Nov-21 23:33N 44°11' E 038°53'15 7.6
2016-Nov-21 21:33N 43°59' E 039°08'6 1.3
2016-Nov-21 17:08N 43°57' E 039°14'18 6.9
2016-Nov-21 14:29N 44°08' E 038°55'3 3.1
2016-Nov-21 13:33N 44°10' E 038°52'2 1.1
2016-Nov-21 11:33N 44°09' E 038°54'2 2.4
2016-Nov-21 10:33N 44°10' E 038°52'1 0.4
2016-Nov-21 07:31N 44°11' E 038°50'36 2.0
2016-Nov-20 13:32N 44°27' E 038°05'3 2.9
2016-Nov-20 12:31N 44°29' E 038°02'2 0.5
2016-Nov-20 09:33N 44°28' E 038°03'4 1.1
2016-Nov-20 06:05N 44°26' E 038°07'2 3.2
2016-Nov-20 05:33N 44°27' E 038°05'2 1.6
2016-Nov-20 04:33N 44°28' E 038°05'4 3.5
2016-Nov-20 03:30N 44°32' E 038°03'0 0.0
2016-Nov-20 01:33N 44°32' E 038°03'0 0.0
2016-Nov-19 23:12N 44°32' E 038°03'0 0.0
2016-Nov-19 22:30N 44°32' E 038°03'4 1.6
2016-Nov-19 20:10N 44°32' E 037°57'0 0.2
2016-Nov-19 19:31N 44°32' E 037°58'1 0.3
2016-Nov-19 17:29N 44°33' E 037°57'3 2.8
2016-Nov-19 16:33N 44°33' E 038°01'3 1.4
2016-Nov-19 14:16N 44°32' E 037°56'1 0.2
2016-Nov-19 09:33N 44°33' E 037°55'3 1.6
2016-Nov-19 07:33N 44°31' E 037°59'2 1.1
2016-Nov-19 05:33N 44°32' E 037°57'3 2.8
2016-Nov-19 04:33N 44°32' E 038°00'1 0.4
2016-Nov-19 01:18N 44°33' E 038°01'2 3.3
2016-Nov-19 00:33N 44°34' E 037°58'3 2.9
2016-Nov-18 23:31N 44°31' E 037°56'1 0.4
2016-Nov-18 20:31N 44°31' E 037°58'2 1.1
2016-Nov-18 18:29N 44°33' E 037°59'17 1.5
2016-Nov-18 07:13N 44°22' E 038°19'1 0.3
2016-Nov-18 04:22N 44°22' E 038°18'12 3.7
2016-Nov-18 01:07N 44°30' E 038°05'0 0.0
2016-Nov-17 23:31N 44°30' E 038°05'0 0.1
2016-Nov-17 21:10N 44°30' E 038°04'3 0.4
2016-Nov-17 14:22N 44°28' E 038°07'2 1.7
2016-Nov-17 13:16N 44°27' E 038°05'3 0.6
2016-Nov-17 08:24N 44°29' E 038°01'15 8.3
2016-Nov-17 06:33N 44°36' E 037°41'  

Dump ship's entire track history